Time;durP1;ratioP1;P1;durP2;ratioP2;P2;SDS_P1;SDS_P2;PMS_P1;PMS_P2;Temp;Humidity;BMP_temperature;BMP_pressure;BME280_temperature;BME280_humidity;BME280_pressure;Samples;Min_cycle;Max_cycle;Signal;HPM_P1;HPM_P2
2023/09/09 00:02:21;;;;;;;18.15;12.77;;;;;;;21.25;100.00;101466.13;5007596;28;20040;-78
2023/09/09 00:04:46;;;;;;;16.65;13.07;;;;;;;21.26;100.00;101470.56;5009263;28;20389;-80
2023/09/09 00:07:12;;;;;;;17.88;13.35;;;;;;;21.27;100.00;101471.34;5019467;28;20056;-79
2023/09/09 00:09:41;;;;;;;19.40;13.80;;;;;;;21.24;100.00;101467.34;5021822;28;20029;-79
2023/09/09 00:12:06;;;;;;;16.65;12.35;;;;;;;21.23;100.00;101473.47;5023913;28;20037;-79
2023/09/09 00:14:32;;;;;;;17.27;13.25;;;;;;;21.17;100.00;101470.34;5003761;28;20131;-79
2023/09/09 00:16:57;;;;;;;16.90;12.43;;;;;;;21.18;100.00;101469.09;5016465;28;20033;-79
2023/09/09 00:19:24;;;;;;;18.65;13.88;;;;;;;21.16;100.00;101465.88;5026369;28;20033;-79
2023/09/09 00:21:49;;;;;;;18.67;13.88;;;;;;;21.10;100.00;101459.09;5019589;28;20026;-79
2023/09/09 00:24:15;;;;;;;21.17;15.27;;;;;;;21.09;100.00;101461.16;5028770;28;20492;-78
2023/09/09 00:26:41;;;;;;;19.88;13.77;;;;;;;21.11;100.00;101460.72;5031358;28;20018;-79
2023/09/09 00:29:06;;;;;;;21.13;14.45;;;;;;;21.04;100.00;101455.97;5003713;28;20029;-79
2023/09/09 00:31:32;;;;;;;20.02;14.05;;;;;;;21.01;100.00;101450.34;5012029;28;20026;-79
2023/09/09 00:34:00;;;;;;;17.88;13.70;;;;;;;21.01;100.00;101456.81;5025006;28;20053;-79
2023/09/09 00:36:26;;;;;;;18.42;14.73;;;;;;;21.00;100.00;101451.59;5007136;28;20033;-80
2023/09/09 00:38:51;;;;;;;21.00;14.55;;;;;;;20.99;100.00;101452.81;5025986;28;20482;-78
2023/09/09 00:41:18;;;;;;;16.98;13.50;;;;;;;20.98;100.00;101456.91;5017984;28;20072;-79
2023/09/09 00:43:44;;;;;;;19.52;14.65;;;;;;;20.98;100.00;101454.06;5026011;28;20074;-78
2023/09/09 00:46:11;;;;;;;21.38;14.65;;;;;;;20.95;100.00;101457.78;5023904;28;20029;-79
2023/09/09 00:48:37;;;;;;;20.15;14.80;;;;;;;20.94;100.00;101456.19;5021904;28;20392;-79
2023/09/09 00:51:04;;;;;;;22.02;15.50;;;;;;;20.87;100.00;101451.41;5006842;28;20033;-79
2023/09/09 00:53:31;;;;;;;20.52;15.00;;;;;;;20.89;100.00;101455.44;5002775;28;20116;-84
2023/09/09 00:55:59;;;;;;;21.67;16.08;;;;;;;20.84;100.00;101450.25;4988988;28;20051;-84
2023/09/09 00:58:25;;;;;;;22.58;15.38;;;;;;;20.85;100.00;101453.88;5007471;28;20175;-84
2023/09/09 01:00:50;;;;;;;21.13;15.55;;;;;;;20.77;100.00;101446.75;5015396;28;20120;-84
2023/09/09 01:03:18;;;;;;;22.17;15.52;;;;;;;20.78;100.00;101451.19;5025593;28;20533;-83
2023/09/09 01:05:44;;;;;;;19.17;14.38;;;;;;;20.76;100.00;101457.31;5015568;28;20034;-80
2023/09/09 01:08:09;;;;;;;21.83;16.35;;;;;;;20.75;100.00;101454.91;5016147;28;20040;-79
2023/09/09 01:10:34;;;;;;;21.95;15.95;;;;;;;20.73;100.00;101452.50;4993601;28;20068;-80
2023/09/09 01:13:00;;;;;;;21.85;15.85;;;;;;;20.71;100.00;101460.66;5024732;28;20036;-79
2023/09/09 01:15:26;;;;;;;20.75;15.50;;;;;;;20.67;100.00;101457.06;5013214;28;20120;-79
2023/09/09 01:17:52;;;;;;;22.52;15.48;;;;;;;20.66;100.00;101452.63;5006399;28;20034;-79
2023/09/09 01:20:20;;;;;;;19.92;14.73;;;;;;;20.68;100.00;101456.66;5016537;28;20025;-78
2023/09/09 01:22:48;;;;;;;22.35;15.65;;;;;;;20.68;100.00;101458.66;5019694;28;20501;-78
2023/09/09 01:25:14;;;;;;;20.25;14.65;;;;;;;20.69;100.00;101451.75;4999211;28;20443;-78
2023/09/09 01:27:40;;;;;;;22.08;16.45;;;;;;;20.69;100.00;101451.75;5017026;28;20041;-79
2023/09/09 01:30:07;;;;;;;20.13;14.18;;;;;;;20.64;100.00;101452.25;4998805;28;20026;-79
2023/09/09 01:32:32;;;;;;;24.38;16.85;;;;;;;20.60;100.00;101448.69;5004495;28;20105;-79
2023/09/09 01:34:58;;;;;;;23.90;16.20;;;;;;;20.59;100.00;101455.59;5005401;28;20121;-80
2023/09/09 01:37:23;;;;;;;23.98;16.35;;;;;;;20.57;100.00;101446.66;5003222;28;20088;-77
2023/09/09 01:39:49;;;;;;;19.75;13.52;;;;;;;20.52;100.00;101443.09;5009862;28;20030;-81
2023/09/09 01:42:17;;;;;;;21.80;15.52;;;;;;;20.54;100.00;101450.38;5003267;28;20117;-80
2023/09/09 01:44:45;;;;;;;22.00;15.48;;;;;;;20.48;100.00;101453.72;5001368;28;20128;-79
2023/09/09 01:47:10;;;;;;;20.17;14.13;;;;;;;20.52;100.00;101456.50;5007407;28;20030;-79
2023/09/09 01:49:36;;;;;;;24.10;17.25;;;;;;;20.41;100.00;101442.47;5006107;28;20072;-78
2023/09/09 01:52:02;;;;;;;25.83;18.23;;;;;;;20.43;100.00;101447.75;5008777;28;20113;-78
2023/09/09 01:54:27;;;;;;;27.70;18.40;;;;;;;20.40;100.00;101452.22;5020899;28;20034;-79
2023/09/09 01:56:53;;;;;;;26.38;17.00;;;;;;;20.38;100.00;101454.69;5003761;28;20065;-78
2023/09/09 01:59:18;;;;;;;29.13;20.00;;;;;;;20.41;100.00;101448.16;5003466;28;20036;-78
2023/09/09 02:01:43;;;;;;;25.45;17.98;;;;;;;20.37;100.00;101455.94;5005955;28;20116;-78
2023/09/09 02:04:09;;;;;;;29.77;18.23;;;;;;;20.35;100.00;101449.09;5008975;28;20077;-78
2023/09/09 02:06:34;;;;;;;26.10;17.40;;;;;;;20.38;100.00;101454.69;5020596;28;20092;-78
2023/09/09 02:09:01;;;;;;;28.58;19.02;;;;;;;20.34;100.00;101453.16;5005205;28;20062;-79
2023/09/09 02:11:26;;;;;;;33.20;19.88;;;;;;;20.23;100.00;101448.44;5008564;28;20077;-79
2023/09/09 02:13:52;;;;;;;30.58;18.77;;;;;;;20.18;100.00;101451.78;5002838;28;20033;-84
2023/09/09 02:16:18;;;;;;;29.35;19.92;;;;;;;20.23;100.00;101447.66;5018016;28;20034;-84
2023/09/09 02:18:43;;;;;;;33.10;19.67;;;;;;;20.23;100.00;101456.19;5007861;28;20062;-84
2023/09/09 02:21:09;;;;;;;29.38;19.63;;;;;;;20.22;100.00;101457.44;5005596;28;20117;-83
2023/09/09 02:23:39;;;;;;;31.50;20.10;;;;;;;20.21;100.00;101447.28;4999932;28;20105;-83
2023/09/09 02:26:04;;;;;;;28.98;18.98;;;;;;;20.21;100.00;101450.91;5007001;28;20034;-84
2023/09/09 02:28:30;;;;;;;32.67;19.08;;;;;;;20.17;100.00;101443.69;5018100;28;20454;-84
2023/09/09 02:30:56;;;;;;;32.05;20.00;;;;;;;20.17;100.00;101447.34;5006561;28;20025;-83
2023/09/09 02:33:22;;;;;;;29.40;19.58;;;;;;;20.14;100.00;101441.72;5004229;28;20030;-84
2023/09/09 02:35:47;;;;;;;31.30;20.30;;;;;;;20.12;100.00;101441.34;5002738;28;20032;-82
2023/09/09 02:38:12;;;;;;;28.77;18.17;;;;;;;20.10;100.00;101438.94;5008690;28;20021;-83
2023/09/09 02:40:38;;;;;;;29.45;20.10;;;;;;;20.11;100.00;101443.38;5002682;28;20630;-84
2023/09/09 02:43:04;;;;;;;30.35;19.95;;;;;;;20.10;100.00;101427.56;5019191;28;20489;-84
2023/09/09 02:45:29;;;;;;;31.10;19.42;;;;;;;20.03;100.00;101436.22;5000859;28;20046;-83
2023/09/09 02:47:54;;;;;;;29.70;18.95;;;;;;;20.01;100.00;101433.78;5022315;28;20061;-83
2023/09/09 02:50:20;;;;;;;27.45;18.33;;;;;;;20.00;100.00;101423.66;5002451;28;20052;-84
2023/09/09 02:52:49;;;;;;;29.65;19.13;;;;;;;19.96;100.00;101422.09;5006756;28;20025;-83
2023/09/09 02:55:14;;;;;;;30.95;19.27;;;;;;;19.95;100.00;101426.19;5005353;28;20145;-83
2023/09/09 02:57:40;;;;;;;29.50;18.52;;;;;;;19.94;100.00;101428.22;5001765;28;20030;-84
2023/09/09 03:00:07;;;;;;;25.70;18.27;;;;;;;19.92;100.00;101427.84;5000643;28;20029;-84
2023/09/09 03:02:33;;;;;;;23.42;17.15;;;;;;;19.90;100.00;101425.44;5000444;28;20030;-83
2023/09/09 03:04:58;;;;;;;24.60;18.00;;;;;;;19.89;100.00;101429.50;5006568;28;20296;-83
2023/09/09 03:07:24;;;;;;;25.42;17.00;;;;;;;19.88;100.00;101432.75;5007538;28;20034;-84
2023/09/09 03:09:49;;;;;;;21.98;15.93;;;;;;;19.85;100.00;101425.13;5007721;28;20061;-83
2023/09/09 03:12:20;;;;;;;23.23;16.52;;;;;;;19.84;100.00;101426.38;5019018;28;20116;-84
2023/09/09 03:14:49;;;;;;;23.70;16.70;;;;;;;19.82;100.00;101421.09;5014922;28;20037;-84
2023/09/09 03:17:16;;;;;;;25.52;16.63;;;;;;;19.80;100.00;101432.09;5007677;28;20033;-84
2023/09/09 03:19:41;;;;;;;25.25;15.80;;;;;;;19.79;100.00;101426.84;5025965;28;20033;-83
2023/09/09 03:22:06;;;;;;;22.13;15.80;;;;;;;19.78;100.00;101422.41;5006022;28;20025;-84
2023/09/09 03:24:32;;;;;;;23.20;15.38;;;;;;;19.78;100.00;101428.88;5000284;28;20029;-83
2023/09/09 03:26:57;;;;;;;21.20;15.63;;;;;;;19.78;100.00;101428.06;5007619;28;20057;-84
2023/09/09 03:29:23;;;;;;;21.88;15.80;;;;;;;19.73;100.00;101426.50;5029693;28;20105;-84
2023/09/09 03:31:48;;;;;;;23.38;16.65;;;;;;;19.72;100.00;101419.22;5020227;28;20029;-84
2023/09/09 03:34:14;;;;;;;22.55;16.23;;;;;;;19.67;100.00;101420.47;5023564;28;20160;-84
2023/09/09 03:36:40;;;;;;;29.92;17.73;;;;;;;19.64;100.00;101424.16;5022542;28;20118;-84
2023/09/09 03:39:06;;;;;;;22.65;14.93;;;;;;;19.68;100.00;101436.28;5026245;28;20053;-84
2023/09/09 03:41:31;;;;;;;20.40;15.45;;;;;;;19.65;100.00;101431.47;5005245;28;20662;-84
2023/09/09 03:43:56;;;;;;;21.83;16.45;;;;;;;19.60;100.00;101429.09;5022235;28;20171;-79
2023/09/09 03:46:22;;;;;;;23.35;15.98;;;;;;;19.59;100.00;101421.81;5021104;28;20160;-79
2023/09/09 03:48:47;;;;;;;22.92;16.52;;;;;;;19.58;100.00;101425.06;5008163;28;20610;-79
2023/09/09 03:51:12;;;;;;;21.85;15.95;;;;;;;19.60;100.00;101429.09;5005891;28;20080;-79
2023/09/09 03:53:38;;;;;;;26.15;17.13;;;;;;;19.57;100.00;101429.16;5025204;28;20029;-78
2023/09/09 03:56:04;;;;;;;25.50;17.65;;;;;;;19.58;100.00;101427.91;5021180;28;20046;-79
2023/09/09 03:58:29;;;;;;;26.45;17.05;;;;;;;19.52;100.00;101426.78;5022026;28;20021;-80
2023/09/09 04:01:06;;;;;;;23.88;16.48;;;;;;;19.52;100.00;101435.28;5019694;28;20456;-80
2023/09/09 04:03:36;;;;;;;23.85;16.83;;;;;;;19.51;100.00;101431.66;5029621;28;20037;-80
2023/09/09 04:06:08;;;;;;;26.65;17.50;;;;;;;19.49;100.00;101428.44;5017954;28;20037;-80
2023/09/09 04:08:34;;;;;;;22.50;15.82;;;;;;;19.47;100.00;101428.06;4999533;28;20842;-79
2023/09/09 04:11:00;;;;;;;26.98;19.42;;;;;;;19.47;100.00;101425.22;5004853;28;20572;-79
2023/09/09 04:13:25;;;;;;;30.08;18.42;;;;;;;19.44;100.00;101431.78;5017548;28;20029;-80
2023/09/09 04:15:55;;;;;;;26.88;19.08;;;;;;;19.43;100.00;101424.47;4971358;28;20071;-79
2023/09/09 04:18:20;;;;;;;27.23;17.45;;;;;;;19.46;100.00;101429.31;4979906;28;20030;-79
2023/09/09 04:20:46;;;;;;;24.08;17.02;;;;;;;19.39;100.00;101421.66;4981543;28;20048;-79
2023/09/09 04:23:12;;;;;;;26.95;18.38;;;;;;;19.43;100.00;101427.31;4988168;28;20137;-79
2023/09/09 04:25:37;;;;;;;26.00;18.33;;;;;;;19.42;100.00;101428.56;4986433;28;20061;-79
2023/09/09 04:28:03;;;;;;;30.58;19.65;;;;;;;19.41;100.00;101429.78;4985756;28;20038;-80
2023/09/09 04:30:29;;;;;;;29.45;19.55;;;;;;;19.38;100.00;101425.75;4984780;28;20023;-79
2023/09/09 04:32:54;;;;;;;24.98;17.88;;;;;;;19.38;100.00;101425.75;4987223;28;20034;-80
2023/09/09 04:35:19;;;;;;;24.55;17.58;;;;;;;19.36;100.00;101427.41;4986716;28;20380;-79
2023/09/09 04:37:45;;;;;;;26.27;19.13;;;;;;;19.34;100.00;101433.50;4988023;28;20581;-79
2023/09/09 04:40:11;;;;;;;24.70;17.90;;;;;;;19.32;100.00;101430.28;5001837;28;20307;-79
2023/09/09 04:42:36;;;;;;;29.30;20.05;;;;;;;19.29;100.00;101436.84;4987089;28;20084;-80
2023/09/09 04:45:04;;;;;;;25.27;19.38;;;;;;;19.30;100.00;101438.44;4987120;28;20030;-79
2023/09/09 04:47:29;;;;;;;27.77;19.58;;;;;;;19.28;100.00;101441.69;4980943;28;20058;-79
2023/09/09 04:50:07;;;;;;;25.23;17.98;;;;;;;19.26;100.00;101443.34;4986381;28;20129;-79
2023/09/09 04:52:35;;;;;;;27.33;19.20;;;;;;;19.28;100.00;101446.56;4981030;28;20587;-80
2023/09/09 04:55:01;;;;;;;24.58;17.58;;;;;;;19.22;100.00;101443.38;4976360;28;20042;-79
2023/09/09 04:57:26;;;;;;;25.35;17.63;;;;;;;19.17;100.00;101446.69;4983000;28;20044;-80
2023/09/09 04:59:51;;;;;;;28.17;17.40;;;;;;;19.15;100.00;101443.47;4983953;28;20034;-80
2023/09/09 05:02:17;;;;;;;30.63;18.65;;;;;;;19.17;100.00;101446.69;4980197;28;20037;-80
2023/09/09 05:04:42;;;;;;;23.35;16.10;;;;;;;19.18;100.00;101442.63;4981179;28;20022;-80
2023/09/09 05:07:08;;;;;;;26.60;18.75;;;;;;;19.18;100.00;101447.50;4980856;28;20045;-79
2023/09/09 05:09:33;;;;;;;27.58;19.13;;;;;;;19.16;100.00;101450.75;4992028;28;20498;-80
2023/09/09 05:11:59;;;;;;;27.25;18.20;;;;;;;19.15;100.00;101451.19;4982496;28;20083;-80
2023/09/09 05:14:24;;;;;;;33.08;19.08;;;;;;;19.14;100.00;101453.19;4989926;28;20029;-80
2023/09/09 05:16:49;;;;;;;25.65;17.88;;;;;;;19.16;100.00;101449.94;5020009;28;20045;-79
2023/09/09 05:19:15;;;;;;;25.25;17.95;;;;;;;19.08;100.00;101444.38;5032254;28;20108;-80
2023/09/09 05:21:40;;;;;;;25.65;17.45;;;;;;;19.07;100.00;101447.63;5002395;28;20072;-79
2023/09/09 05:24:06;;;;;;;27.25;18.77;;;;;;;19.12;100.00;101449.19;5006116;28;20505;-79
2023/09/09 05:26:32;;;;;;;26.83;17.67;;;;;;;19.08;100.00;101454.94;5004889;28;20080;-81
2023/09/09 05:28:59;;;;;;;24.80;17.83;;;;;;;19.04;100.00;101439.97;5021895;28;20052;-79
2023/09/09 05:31:25;;;;;;;25.98;18.38;;;;;;;19.08;100.00;101450.03;5014055;28;20026;-79
2023/09/09 05:33:50;;;;;;;25.73;18.15;;;;;;;19.07;100.00;101456.13;5020187;28;20072;-79
2023/09/09 05:36:16;;;;;;;23.80;17.90;;;;;;;18.99;100.00;101446.09;5022660;28;20037;-79
2023/09/09 05:38:41;;;;;;;28.20;19.80;;;;;;;19.03;100.00;101453.34;5020875;28;20493;-81
2023/09/09 05:41:06;;;;;;;28.92;18.38;;;;;;;18.92;100.00;101435.63;5003928;28;20033;-81
2023/09/09 05:43:32;;;;;;;25.23;18.15;;;;;;;18.99;100.00;101452.56;5021678;28;20038;-80
2023/09/09 05:45:59;;;;;;;25.42;18.80;;;;;;;19.05;100.00;101455.75;5023860;28;20033;-80
2023/09/09 05:48:25;;;;;;;27.60;16.48;;;;;;;19.03;100.00;101452.53;5009264;28;20133;-80
2023/09/09 05:50:50;;;;;;;22.27;17.08;;;;;;;19.04;100.00;101462.66;5028277;28;20100;-80
2023/09/09 05:53:15;;;;;;;22.55;17.02;;;;;;;19.03;100.00;101453.34;5021905;28;20021;-80
2023/09/09 05:55:41;;;;;;;28.60;18.60;;;;;;;19.02;100.00;101457.41;5026371;28;20397;-79
2023/09/09 05:58:07;;;;;;;24.63;17.60;;;;;;;19.01;100.00;101450.13;5016775;28;20031;-80
2023/09/09 06:00:35;;;;;;;26.30;18.13;;;;;;;19.03;100.00;101459.00;5021653;28;20108;-81
2023/09/09 06:03:01;;;;;;;25.65;17.98;;;;;;;19.02;100.00;101465.13;5028462;28;20388;-80
2023/09/09 06:05:26;;;;;;;23.20;18.05;;;;;;;19.04;100.00;101471.19;5003889;28;20116;-80
2023/09/09 06:07:52;;;;;;;26.58;17.80;;;;;;;19.03;100.00;101470.34;5023524;28;20025;-81
2023/09/09 06:10:17;;;;;;;26.33;17.85;;;;;;;19.05;100.00;101472.78;5020405;28;20430;-80
2023/09/09 06:12:43;;;;;;;26.67;17.85;;;;;;;19.08;100.00;101480.47;5001640;28;20033;-80
2023/09/09 06:15:09;;;;;;;25.75;18.35;;;;;;;19.07;100.00;101485.31;5023357;28;20069;-80
2023/09/09 06:17:36;;;;;;;28.42;18.52;;;;;;;19.10;100.00;101492.19;5004890;28;20033;-81
2023/09/09 06:20:02;;;;;;;42.80;25.77;;;;;;;19.10;100.00;101486.53;5025770;28;20043;-84
2023/09/09 06:22:28;;;;;;;35.15;22.63;;;;;;;19.09;100.00;101490.56;5012052;28;20378;-84
2023/09/09 06:24:53;;;;;;;35.15;24.33;;;;;;;19.01;100.00;101489.03;5004669;28;20041;-84
2023/09/09 06:27:18;;;;;;;43.85;28.83;;;;;;;19.04;100.00;101491.84;5023727;28;20072;-84
2023/09/09 06:29:44;;;;;;;40.47;25.48;;;;;;;19.06;100.00;101502.78;5028566;28;20104;-84
2023/09/09 06:32:10;;;;;;;43.47;27.77;;;;;;;19.12;100.00;101491.75;5011410;28;20083;-84
2023/09/09 06:34:36;;;;;;;38.88;24.10;;;;;;;19.11;100.00;101499.47;5007855;28;20358;-84
2023/09/09 06:37:01;;;;;;;36.38;24.10;;;;;;;18.97;100.00;101491.09;5013813;28;20030;-84
2023/09/09 06:39:27;;;;;;;32.15;23.33;;;;;;;18.98;100.00;101496.38;5030312;28;20224;-84
2023/09/09 06:41:52;;;;;;;39.67;25.00;;;;;;;19.09;100.00;101501.91;5025875;28;20060;-84
2023/09/09 06:44:17;;;;;;;44.63;30.42;;;;;;;19.21;100.00;101486.38;5029149;28;20036;-84
2023/09/09 06:46:43;;;;;;;34.83;21.55;;;;;;;19.24;100.00;101503.34;5024170;28;20090;-84
2023/09/09 06:49:08;;;;;;;35.45;23.48;;;;;;;19.21;100.00;101492.88;5020284;28;20025;-84
2023/09/09 06:51:33;;;;;;;51.80;31.63;;;;;;;19.25;100.00;101499.31;5015541;28;20037;-84
2023/09/09 06:53:59;;;;;;;41.22;28.98;;;;;;;19.24;100.00;101503.34;5025441;28;20040;-84
2023/09/09 06:56:24;;;;;;;38.47;23.83;;;;;;;19.31;100.00;101510.97;5022429;28;20025;-84
2023/09/09 06:58:49;;;;;;;49.88;32.92;;;;;;;19.29;100.00;101504.94;5026575;28;20029;-84
2023/09/09 07:01:15;;;;;;;54.10;31.67;;;;;;;19.26;100.00;101508.63;5020428;28;20448;-84
2023/09/09 07:03:41;;;;;;;44.83;28.63;;;;;;;19.17;100.00;101502.66;5025063;28;20030;-83
2023/09/09 07:06:06;;;;;;;55.65;34.92;;;;;;;19.45;100.00;101507.97;5017132;28;20029;-84
2023/09/09 07:08:31;;;;;;;35.63;24.30;;;;;;;19.34;100.00;101510.16;5031457;28;20084;-84
2023/09/09 07:10:57;;;;;;;59.15;36.67;;;;;;;19.46;100.00;101514.47;5024359;28;20035;-84
2023/09/09 07:13:23;;;;;;;61.17;34.55;;;;;;;19.46;100.00;101520.16;5004841;28;20036;-84
2023/09/09 07:15:54;;;;;;;33.78;24.45;;;;;;;19.27;100.00;101518.75;5022577;28;20084;-84
2023/09/09 07:18:20;;;;;;;55.80;34.97;;;;;;;19.45;100.00;101518.53;5021544;28;20501;-84
2023/09/09 07:20:46;;;;;;;53.40;35.47;;;;;;;19.41;100.00;101526.28;5011348;28;20033;-84
2023/09/09 07:23:14;;;;;;;48.97;30.42;;;;;;;19.23;100.00;101518.78;5008814;28;20033;-83
2023/09/09 07:25:39;;;;;;;36.65;25.33;;;;;;;19.39;100.00;101531.59;5009429;28;20029;-84
2023/09/09 07:28:05;;;;;;;39.55;27.27;;;;;;;19.39;100.00;101525.91;5028741;28;20359;-84
2023/09/09 07:30:32;;;;;;;48.53;33.28;;;;;;;19.48;100.00;101529.06;5018064;28;20025;-83
2023/09/09 07:32:58;;;;;;;37.22;25.13;;;;;;;19.59;100.00;101532.56;5010116;28;20527;-83
2023/09/09 07:35:23;;;;;;;38.10;24.35;;;;;;;19.64;100.00;101526.41;5029869;28;20033;-84
2023/09/09 07:37:49;;;;;;;49.35;30.98;;;;;;;19.77;100.00;101535.19;5026764;28;20021;-84
2023/09/09 07:40:14;;;;;;;45.90;31.10;;;;;;;19.54;100.00;101532.22;5037955;28;20025;-84
2023/09/09 07:42:40;;;;;;;56.85;38.45;;;;;;;19.56;100.00;101532.59;5019931;28;20030;-84
2023/09/09 07:45:06;;;;;;;62.20;40.85;;;;;;;19.52;100.00;101529.78;5014176;28;20037;-84
2023/09/09 07:47:32;;;;;;;51.05;32.47;;;;;;;19.37;100.00;101519.84;5022175;28;20083;-91
2023/09/09 07:49:58;;;;;;;61.83;36.10;;;;;;;19.38;100.00;101530.00;5004770;28;20488;-91
2023/09/09 07:52:23;;;;;;;45.03;31.70;;;;;;;19.49;100.00;101537.13;5019497;28;20037;-91
2023/09/09 07:54:51;;;;;;;50.83;33.45;;;;;;;19.65;100.00;101536.53;5008400;28;20025;-89
2023/09/09 07:57:16;;;;;;;41.05;27.50;;;;;;;19.55;100.00;101539.53;5001965;28;20022;-88
2023/09/09 07:59:42;;;;;;;52.20;32.97;;;;;;;19.87;100.00;101530.59;5014188;28;20124;-91
2023/09/09 08:02:07;;;;;;;40.47;26.30;;;;;;;19.98;100.00;101541.81;5004504;28;20040;-90
2023/09/09 08:04:33;;;;;;;47.60;31.30;;;;;;;20.01;100.00;101547.47;5016776;28;20140;-90
2023/09/09 08:06:58;;;;;;;45.05;31.55;;;;;;;19.90;100.00;101552.47;5004501;28;20029;-87
2023/09/09 08:09:26;;;;;;;41.55;28.10;;;;;;;19.90;100.00;101546.78;5008567;28;20497;-87
2023/09/09 08:11:51;;;;;;;49.67;32.03;;;;;;;20.16;100.00;101550.91;5019188;28;20401;-88
2023/09/09 08:14:18;;;;;;;49.65;29.83;;;;;;;20.17;100.00;101563.06;5028349;28;20028;-88
2023/09/09 08:16:43;;;;;;;48.53;30.00;;;;;;;20.17;100.00;101557.38;5013063;28;20029;-88
2023/09/09 08:19:09;;;;;;;66.95;44.88;;;;;;;20.16;100.00;101561.47;5010612;28;20113;-87
2023/09/09 08:21:34;;;;;;;68.07;42.30;;;;;;;20.24;100.00;101548.75;5006847;28;20498;-88
2023/09/09 08:24:00;;;;;;;62.88;38.05;;;;;;;20.26;100.00;101567.00;5019041;28;20057;-88
2023/09/09 08:26:26;;;;;;;59.20;39.35;;;;;;;20.32;100.00;101572.97;5023411;28;20505;-87
2023/09/09 08:29:04;;;;;;;55.38;34.10;;;;;;;20.30;100.00;101558.41;5004246;28;20035;-88
2023/09/09 08:31:38;;;;;;;63.60;38.22;;;;;;;20.37;100.00;101563.19;5006416;28;20501;-88
2023/09/09 08:34:03;;;;;;;79.78;49.53;;;;;;;20.51;100.00;101566.63;5015800;28;20029;-83
2023/09/09 08:36:29;;;;;;;66.10;42.08;;;;;;;20.43;100.00;101559.44;5005253;28;20041;-83
2023/09/09 08:38:56;;;;;;;79.65;49.30;;;;;;;20.57;100.00;101577.50;5017166;28;20036;-84
2023/09/09 08:41:31;;;;;;;55.25;37.50;;;;;;;20.44;100.00;101580.13;5011757;28;20100;-84
2023/09/09 08:44:22;;;;;;;59.53;37.45;;;;;;;20.69;100.00;101586.25;5021044;28;20025;-84
2023/09/09 08:46:48;;;;;;;84.65;49.75;;;;;;;20.73;100.00;101580.50;5004603;28;20056;-84
2023/09/09 08:49:17;;;;;;;64.15;41.58;;;;;;;20.73;100.00;101583.34;5020638;28;20112;-84
2023/09/09 08:52:11;;;;;;;74.15;46.60;;;;;;;20.97;100.00;101591.91;5024214;28;20087;-83
2023/09/09 08:54:39;;;;;;;81.25;49.78;;;;;;;20.95;100.00;101588.69;5014197;28;20494;-83
2023/09/09 08:57:05;;;;;;;61.67;38.78;;;;;;;20.94;100.00;101592.78;5026344;28;20033;-83
2023/09/09 08:59:32;;;;;;;78.10;49.80;;;;;;;21.01;100.00;101599.13;5025774;28;20030;-83
2023/09/09 09:01:58;;;;;;;71.13;44.90;;;;;;;21.09;100.00;101594.13;5017388;28;20413;-84
2023/09/09 09:04:26;;;;;;;78.00;49.75;;;;;;;21.28;100.00;101596.22;5021943;28;20030;-87
2023/09/09 09:06:52;;;;;;;76.13;44.25;;;;;;;21.27;100.00;101590.94;5014163;28;20029;-85
2023/09/09 09:09:18;;;;;;;80.88;53.65;;;;;;;21.44;100.00;101589.03;5023237;28;20053;-86
2023/09/09 09:11:44;;;;;;;88.38;52.75;;;;;;;21.76;100.00;101596.94;5027330;28;20151;-85
2023/09/09 09:14:10;;;;;;;90.85;52.45;;;;;;;21.78;100.00;101599.34;5007207;28;20041;-86
2023/09/09 09:16:40;;;;;;;69.10;43.00;;;;;;;21.69;100.00;101615.00;5003022;28;20029;-86
2023/09/09 09:19:07;;;;;;;79.03;49.17;;;;;;;21.88;100.00;101609.72;5018070;28;20030;-87
2023/09/09 09:21:35;;;;;;;81.28;49.67;;;;;;;21.81;100.00;101587.06;5018441;28;20393;-87
2023/09/09 09:24:02;;;;;;;83.95;54.35;;;;;;;21.90;100.00;101596.66;5008085;28;20029;-85
2023/09/09 09:26:29;;;;;;;74.95;47.50;;;;;;;21.91;100.00;101588.91;5003551;28;20036;-85
2023/09/09 09:28:55;;;;;;;77.05;47.95;;;;;;;22.04;100.00;101594.72;5009618;28;20102;-86
2023/09/09 09:31:22;;;;;;;81.72;47.35;;;;;;;22.37;100.00;101598.50;5005058;28;20060;-86
2023/09/09 09:33:49;;;;;;;80.07;49.67;;;;;;;22.54;100.00;101605.03;5009401;28;20313;-86
2023/09/09 09:36:17;;;;;;;67.38;44.90;;;;;;;22.62;100.00;101612.19;5004999;28;20033;-85
2023/09/09 09:38:42;;;;;;;63.50;42.08;;;;;;;22.53;100.00;101601.34;5005429;28;20032;-86
2023/09/09 09:41:09;;;;;;;72.60;43.83;;;;;;;22.79;100.00;101595.03;5004564;28;20029;-84
2023/09/09 09:43:34;;;;;;;71.32;44.50;;;;;;;22.94;100.00;101599.94;5018991;28;20529;-86
2023/09/09 09:46:21;;;;;;;70.85;44.78;;;;;;;23.04;100.00;101611.56;4999386;28;20037;-85
2023/09/09 09:48:47;;;;;;;72.18;45.50;;;;;;;23.12;100.00;101598.72;5022926;28;21879;-85
2023/09/09 09:51:13;;;;;;;64.00;39.25;;;;;;;23.08;100.00;101604.50;5021237;28;20159;-85
2023/09/09 09:53:47;;;;;;;59.25;41.22;;;;;;;23.09;100.00;101605.31;5008643;28;20481;-85
2023/09/09 09:56:13;;;;;;;58.42;38.30;;;;;;;23.13;100.00;101600.34;5018884;28;20083;-85
2023/09/09 09:58:42;;;;;;;67.38;44.45;;;;;;;23.30;100.00;101593.31;5005107;28;20082;-82
2023/09/09 10:01:09;;;;;;;59.72;41.30;;;;;;;23.19;100.00;101587.13;5024544;28;20397;-83
2023/09/09 10:04:01;;;;;;;61.55;41.63;;;;;;;23.54;100.00;101604.50;5010612;28;20037;-84
2023/09/09 10:06:28;;;;;;;60.03;37.58;;;;;;;23.53;100.00;101600.84;5005124;28;20064;-82
2023/09/09 10:09:26;;;;;;;56.97;37.75;;;;;;;23.49;100.00;101594.44;5004299;28;20065;-82
2023/09/09 10:12:10;;;;;;;48.50;31.83;;;;;;;23.52;100.00;101582.09;5005357;28;20079;-81
2023/09/09 10:14:37;;;;;;;40.70;29.25;;;;;;;23.59;100.00;101597.44;5028453;28;20037;-81
2023/09/09 10:17:07;;;;;;;38.60;27.83;;;;;;;23.68;100.00;101595.53;5028527;28;20444;-81
2023/09/09 10:19:36;;;;;;;38.83;26.58;;;;;;;23.82;100.00;101597.19;5010332;28;20075;-81
2023/09/09 10:22:03;;;;;;;58.38;28.63;;;;;;;23.93;100.00;101594.03;5012882;28;20516;-83
2023/09/09 10:24:29;;;;;;;32.78;21.88;;;;;;;23.94;100.00;101598.50;5024487;28;20034;-82
2023/09/09 10:26:56;;;;;;;31.10;20.50;;;;;;;23.88;100.00;101586.81;5006971;28;20056;-84
2023/09/09 10:29:23;;;;;;;33.20;22.27;;;;;;;24.04;100.00;101588.00;5015425;28;20473;-82
2023/09/09 10:31:49;;;;;;;36.92;23.48;;;;;;;24.37;100.00;101605.78;5024058;28;20025;-82
2023/09/09 10:34:17;;;;;;;32.72;22.70;;;;;;;24.08;100.00;101611.56;5029093;28;20116;-84
2023/09/09 10:36:44;;;;;;;35.38;22.30;;;;;;;24.32;100.00;101603.47;5022518;28;20025;-85
2023/09/09 10:39:13;;;;;;;31.55;22.30;;;;;;;24.50;100.00;101603.72;5009711;28;20060;-84
2023/09/09 10:41:40;;;;;;;33.33;22.25;;;;;;;24.48;100.00;101600.50;5026759;28;20053;-87
2023/09/09 10:44:05;;;;;;;26.60;17.88;;;;;;;24.51;100.00;101595.94;5007945;28;20033;-86
2023/09/09 10:46:36;;;;;;;25.50;17.45;;;;;;;24.47;100.00;101604.59;5007664;28;20029;-85
2023/09/09 10:49:03;;;;;;;25.08;16.25;;;;;;;24.58;98.80;101598.56;5024542;28;20041;-87
2023/09/09 10:51:29;;;;;;;24.65;17.10;;;;;;;24.53;100.00;101599.94;5021192;28;20117;-85
2023/09/09 10:54:15;;;;;;;23.73;16.73;;;;;;;24.82;95.50;101606.81;5020057;28;20079;-88
2023/09/09 10:56:49;;;;;;;18.40;14.10;;;;;;;24.57;96.72;101596.19;5004883;28;20045;-86
2023/09/09 10:59:23;;;;;;;21.40;13.23;;;;;;;24.97;93.25;101607.13;5005085;28;20112;-87
2023/09/09 11:02:08;;;;;;;17.92;12.25;;;;;;;24.68;96.35;101614.59;5027617;28;20061;-88